sensor_id;sensor_type;location;lat;lon;timestamp;temperature;humidity
59961;DHT22;55902;-37.980;-63.602;2022-07-15T00:01:55;11.70;98.30
59961;DHT22;55902;-37.980;-63.602;2022-07-15T00:04:23;11.60;98.30
59961;DHT22;55902;-37.980;-63.602;2022-07-15T00:06:50;11.50;98.20
59961;DHT22;55902;-37.980;-63.602;2022-07-15T00:09:18;11.40;98.40
59961;DHT22;55902;-37.980;-63.602;2022-07-15T00:11:45;11.40;98.40
59961;DHT22;55902;-37.980;-63.602;2022-07-15T00:14:13;11.30;98.50
59961;DHT22;55902;-37.980;-63.602;2022-07-15T00:16:41;11.30;98.50
59961;DHT22;55902;-37.980;-63.602;2022-07-15T00:19:09;11.20;98.50
59961;DHT22;55902;-37.980;-63.602;2022-07-15T00:21:36;11.20;98.50
59961;DHT22;55902;-37.980;-63.602;2022-07-15T00:24:04;11.20;98.60
59961;DHT22;55902;-37.980;-63.602;2022-07-15T00:26:31;11.10;98.60
59961;DHT22;55902;-37.980;-63.602;2022-07-15T00:28:58;11.00;98.90
59961;DHT22;55902;-37.980;-63.602;2022-07-15T00:34:48;10.80;99.20
59961;DHT22;55902;-37.980;-63.602;2022-07-15T00:37:18;10.70;99.20
59961;DHT22;55902;-37.980;-63.602;2022-07-15T00:39:47;10.60;99.30
59961;DHT22;55902;-37.980;-63.602;2022-07-15T00:42:16;10.60;99.20
59961;DHT22;55902;-37.980;-63.602;2022-07-15T00:45:04;10.60;99.30
59961;DHT22;55902;-37.980;-63.602;2022-07-15T00:47:32;10.60;99.20
59961;DHT22;55902;-37.980;-63.602;2022-07-15T00:50:01;10.60;99.10
59961;DHT22;55902;-37.980;-63.602;2022-07-15T00:52:29;10.50;99.20
59961;DHT22;55902;-37.980;-63.602;2022-07-15T00:54:59;10.30;99.10
59961;DHT22;55902;-37.980;-63.602;2022-07-15T00:57:28;10.20;99.20
59961;DHT22;55902;-37.980;-63.602;2022-07-15T01:00:00;10.10;99.30
59961;DHT22;55902;-37.980;-63.602;2022-07-15T01:02:29;10.00;99.60
59961;DHT22;55902;-37.980;-63.602;2022-07-15T01:04:59;9.90;99.70
59961;DHT22;55902;-37.980;-63.602;2022-07-15T01:07:28;9.90;99.70
59961;DHT22;55902;-37.980;-63.602;2022-07-15T01:09:58;9.90;99.50
59961;DHT22;55902;-37.980;-63.602;2022-07-15T01:12:26;9.90;99.70
59961;DHT22;55902;-37.980;-63.602;2022-07-15T01:14:54;9.80;99.70
59961;DHT22;55902;-37.980;-63.602;2022-07-15T01:17:22;9.70;99.60
59961;DHT22;55902;-37.980;-63.602;2022-07-15T01:19:51;9.70;99.70
59961;DHT22;55902;-37.980;-63.602;2022-07-15T01:22:20;9.70;99.70
59961;DHT22;55902;-37.980;-63.602;2022-07-15T01:24:50;9.70;99.80
59961;DHT22;55902;-37.980;-63.602;2022-07-15T01:27:20;9.70;99.90
59961;DHT22;55902;-37.980;-63.602;2022-07-15T01:29:49;9.70;99.90
59961;DHT22;55902;-37.980;-63.602;2022-07-15T01:32:16;9.60;99.90
59961;DHT22;55902;-37.980;-63.602;2022-07-15T01:34:45;9.50;99.90
59961;DHT22;55902;-37.980;-63.602;2022-07-15T01:37:16;9.40;99.90
59961;DHT22;55902;-37.980;-63.602;2022-07-15T01:39:43;9.40;99.90
59961;DHT22;55902;-37.980;-63.602;2022-07-15T01:42:12;9.30;99.90
59961;DHT22;55902;-37.980;-63.602;2022-07-15T01:44:40;9.20;99.90
59961;DHT22;55902;-37.980;-63.602;2022-07-15T01:47:07;9.10;99.90
59961;DHT22;55902;-37.980;-63.602;2022-07-15T01:49:38;9.10;99.90
59961;DHT22;55902;-37.980;-63.602;2022-07-15T01:52:06;9.00;99.90
59961;DHT22;55902;-37.980;-63.602;2022-07-15T01:54:36;8.90;99.90
59961;DHT22;55902;-37.980;-63.602;2022-07-15T01:57:04;8.80;99.90
59961;DHT22;55902;-37.980;-63.602;2022-07-15T01:59:32;8.70;99.90
59961;DHT22;55902;-37.980;-63.602;2022-07-15T02:02:00;8.60;99.90
59961;DHT22;55902;-37.980;-63.602;2022-07-15T02:04:27;8.50;99.90
59961;DHT22;55902;-37.980;-63.602;2022-07-15T02:06:55;8.40;99.90
59961;DHT22;55902;-37.980;-63.602;2022-07-15T02:09:22;8.30;99.90
59961;DHT22;55902;-37.980;-63.602;2022-07-15T02:11:50;8.20;99.90
59961;DHT22;55902;-37.980;-63.602;2022-07-15T02:14:17;8.10;99.90
59961;DHT22;55902;-37.980;-63.602;2022-07-15T02:16:45;8.10;99.90
59961;DHT22;55902;-37.980;-63.602;2022-07-15T02:19:13;8.00;99.90
59961;DHT22;55902;-37.980;-63.602;2022-07-15T02:21:40;8.00;99.90
59961;DHT22;55902;-37.980;-63.602;2022-07-15T02:24:08;7.90;99.90
59961;DHT22;55902;-37.980;-63.602;2022-07-15T02:26:36;7.90;99.90
59961;DHT22;55902;-37.980;-63.602;2022-07-15T02:29:03;7.90;99.90
59961;DHT22;55902;-37.980;-63.602;2022-07-15T02:31:30;8.00;99.90
59961;DHT22;55902;-37.980;-63.602;2022-07-15T02:33:58;8.00;99.90
59961;DHT22;55902;-37.980;-63.602;2022-07-15T02:36:25;8.00;99.90
59961;DHT22;55902;-37.980;-63.602;2022-07-15T02:38:52;8.00;99.90
59961;DHT22;55902;-37.980;-63.602;2022-07-15T02:41:20;8.10;99.90
59961;DHT22;55902;-37.980;-63.602;2022-07-15T02:53:52;8.80;99.90
59961;DHT22;55902;-37.980;-63.602;2022-07-15T02:56:19;8.90;99.90
59961;DHT22;55902;-37.980;-63.602;2022-07-15T02:58:46;9.00;99.90
59961;DHT22;55902;-37.980;-63.602;2022-07-15T03:01:13;9.10;99.90
59961;DHT22;55902;-37.980;-63.602;2022-07-15T03:03:39;9.20;99.90
59961;DHT22;55902;-37.980;-63.602;2022-07-15T03:06:06;9.30;99.90
59961;DHT22;55902;-37.980;-63.602;2022-07-15T03:08:33;9.40;99.90
59961;DHT22;55902;-37.980;-63.602;2022-07-15T03:11:00;9.50;99.90
59961;DHT22;55902;-37.980;-63.602;2022-07-15T03:13:27;9.60;99.90
59961;DHT22;55902;-37.980;-63.602;2022-07-15T03:15:55;9.80;99.90
59961;DHT22;55902;-37.980;-63.602;2022-07-15T03:18:22;9.90;99.90
59961;DHT22;55902;-37.980;-63.602;2022-07-15T03:20:49;10.00;99.90
59961;DHT22;55902;-37.980;-63.602;2022-07-15T03:23:15;10.10;99.90
59961;DHT22;55902;-37.980;-63.602;2022-07-15T03:25:42;10.10;99.90
59961;DHT22;55902;-37.980;-63.602;2022-07-15T03:28:09;10.20;99.90
59961;DHT22;55902;-37.980;-63.602;2022-07-15T03:30:36;10.30;99.90
59961;DHT22;55902;-37.980;-63.602;2022-07-15T03:33:03;10.40;99.90
59961;DHT22;55902;-37.980;-63.602;2022-07-15T03:35:30;10.40;99.90
59961;DHT22;55902;-37.980;-63.602;2022-07-15T03:37:57;10.40;99.90
59961;DHT22;55902;-37.980;-63.602;2022-07-15T03:40:26;10.50;99.90
59961;DHT22;55902;-37.980;-63.602;2022-07-15T03:42:53;10.40;99.90
59961;DHT22;55902;-37.980;-63.602;2022-07-15T03:45:20;10.50;99.90
59961;DHT22;55902;-37.980;-63.602;2022-07-15T03:47:47;10.60;99.90
59961;DHT22;55902;-37.980;-63.602;2022-07-15T03:50:14;10.60;99.90
59961;DHT22;55902;-37.980;-63.602;2022-07-15T03:52:44;10.60;99.90
59961;DHT22;55902;-37.980;-63.602;2022-07-15T03:55:11;10.70;99.90
59961;DHT22;55902;-37.980;-63.602;2022-07-15T03:57:39;10.70;99.90
59961;DHT22;55902;-37.980;-63.602;2022-07-15T04:00:06;10.70;99.90
59961;DHT22;55902;-37.980;-63.602;2022-07-15T04:02:34;10.70;99.90
59961;DHT22;55902;-37.980;-63.602;2022-07-15T04:05:00;10.70;99.90
59961;DHT22;55902;-37.980;-63.602;2022-07-15T04:07:27;10.70;99.90
59961;DHT22;55902;-37.980;-63.602;2022-07-15T04:09:54;10.70;99.90
59961;DHT22;55902;-37.980;-63.602;2022-07-15T04:12:21;10.80;99.90
59961;DHT22;55902;-37.980;-63.602;2022-07-15T04:14:48;10.70;99.90
59961;DHT22;55902;-37.980;-63.602;2022-07-15T04:17:15;10.60;99.90
59961;DHT22;55902;-37.980;-63.602;2022-07-15T04:19:42;10.60;99.90
59961;DHT22;55902;-37.980;-63.602;2022-07-15T04:22:09;10.60;99.90
59961;DHT22;55902;-37.980;-63.602;2022-07-15T04:24:36;10.60;99.90
59961;DHT22;55902;-37.980;-63.602;2022-07-15T04:27:03;10.50;99.90
59961;DHT22;55902;-37.980;-63.602;2022-07-15T04:29:30;10.60;99.90
59961;DHT22;55902;-37.980;-63.602;2022-07-15T04:31:58;10.60;99.90
59961;DHT22;55902;-37.980;-63.602;2022-07-15T04:44:30;10.60;99.90
59961;DHT22;55902;-37.980;-63.602;2022-07-15T04:46:57;10.60;99.90
59961;DHT22;55902;-37.980;-63.602;2022-07-15T04:49:25;10.70;99.90
59961;DHT22;55902;-37.980;-63.602;2022-07-15T04:52:10;10.80;99.90
59961;DHT22;55902;-37.980;-63.602;2022-07-15T04:54:37;10.80;99.90
59961;DHT22;55902;-37.980;-63.602;2022-07-15T04:57:04;10.70;99.90
59961;DHT22;55902;-37.980;-63.602;2022-07-15T04:59:31;10.60;99.90
59961;DHT22;55902;-37.980;-63.602;2022-07-15T05:01:59;10.60;99.90
59961;DHT22;55902;-37.980;-63.602;2022-07-15T05:04:26;10.50;99.90
59961;DHT22;55902;-37.980;-63.602;2022-07-15T05:06:53;10.60;99.90
59961;DHT22;55902;-37.980;-63.602;2022-07-15T05:09:20;10.60;99.90
59961;DHT22;55902;-37.980;-63.602;2022-07-15T05:11:46;10.60;99.90
59961;DHT22;55902;-37.980;-63.602;2022-07-15T05:14:13;10.60;99.90
59961;DHT22;55902;-37.980;-63.602;2022-07-15T05:16:40;10.70;99.90
59961;DHT22;55902;-37.980;-63.602;2022-07-15T05:19:07;10.60;99.90
59961;DHT22;55902;-37.980;-63.602;2022-07-15T05:21:35;10.60;99.90
59961;DHT22;55902;-37.980;-63.602;2022-07-15T05:24:02;10.80;99.90
59961;DHT22;55902;-37.980;-63.602;2022-07-15T05:26:29;10.70;99.90
59961;DHT22;55902;-37.980;-63.602;2022-07-15T05:28:55;10.70;99.90
59961;DHT22;55902;-37.980;-63.602;2022-07-15T05:31:22;10.70;99.90
59961;DHT22;55902;-37.980;-63.602;2022-07-15T05:33:49;10.60;99.90
59961;DHT22;55902;-37.980;-63.602;2022-07-15T05:36:18;10.70;99.90
59961;DHT22;55902;-37.980;-63.602;2022-07-15T05:38:45;10.70;99.90
59961;DHT22;55902;-37.980;-63.602;2022-07-15T05:41:12;10.70;99.90
59961;DHT22;55902;-37.980;-63.602;2022-07-15T05:43:39;10.70;99.90
59961;DHT22;55902;-37.980;-63.602;2022-07-15T05:46:06;10.70;99.90
59961;DHT22;55902;-37.980;-63.602;2022-07-15T05:48:33;10.70;99.90
59961;DHT22;55902;-37.980;-63.602;2022-07-15T05:51:01;10.70;99.90
59961;DHT22;55902;-37.980;-63.602;2022-07-15T05:53:28;10.70;99.90
59961;DHT22;55902;-37.980;-63.602;2022-07-15T06:06:03;10.70;99.90
59961;DHT22;55902;-37.980;-63.602;2022-07-15T06:08:32;10.80;99.90
59961;DHT22;55902;-37.980;-63.602;2022-07-15T06:10:58;10.80;99.90
59961;DHT22;55902;-37.980;-63.602;2022-07-15T06:13:25;10.90;99.90
59961;DHT22;55902;-37.980;-63.602;2022-07-15T06:15:53;10.90;99.90
59961;DHT22;55902;-37.980;-63.602;2022-07-15T06:18:20;10.90;99.90
59961;DHT22;55902;-37.980;-63.602;2022-07-15T06:20:47;10.90;99.90
59961;DHT22;55902;-37.980;-63.602;2022-07-15T06:23:14;10.90;99.90
59961;DHT22;55902;-37.980;-63.602;2022-07-15T06:25:41;10.80;99.90
59961;DHT22;55902;-37.980;-63.602;2022-07-15T06:28:08;10.80;99.90
59961;DHT22;55902;-37.980;-63.602;2022-07-15T06:30:35;10.80;99.90
59961;DHT22;55902;-37.980;-63.602;2022-07-15T06:33:02;10.80;99.90
59961;DHT22;55902;-37.980;-63.602;2022-07-15T06:35:29;10.80;99.90
59961;DHT22;55902;-37.980;-63.602;2022-07-15T06:37:56;10.70;99.90
59961;DHT22;55902;-37.980;-63.602;2022-07-15T06:40:23;10.70;99.90
59961;DHT22;55902;-37.980;-63.602;2022-07-15T06:42:50;10.70;99.90
59961;DHT22;55902;-37.980;-63.602;2022-07-15T06:48:39;10.70;99.90
59961;DHT22;55902;-37.980;-63.602;2022-07-15T06:51:08;10.60;99.90
59961;DHT22;55902;-37.980;-63.602;2022-07-15T06:53:35;10.60;99.90
59961;DHT22;55902;-37.980;-63.602;2022-07-15T06:56:04;10.60;99.90
59961;DHT22;55902;-37.980;-63.602;2022-07-15T06:58:31;10.60;99.90
59961;DHT22;55902;-37.980;-63.602;2022-07-15T07:00:59;10.50;99.90
59961;DHT22;55902;-37.980;-63.602;2022-07-15T07:03:26;10.60;99.90
59961;DHT22;55902;-37.980;-63.602;2022-07-15T07:05:53;10.60;99.90
59961;DHT22;55902;-37.980;-63.602;2022-07-15T07:08:20;10.70;99.90
59961;DHT22;55902;-37.980;-63.602;2022-07-15T07:10:47;10.70;99.90
59961;DHT22;55902;-37.980;-63.602;2022-07-15T07:13:14;10.70;99.90
59961;DHT22;55902;-37.980;-63.602;2022-07-15T07:15:40;10.80;99.90
59961;DHT22;55902;-37.980;-63.602;2022-07-15T07:18:07;10.70;99.90
59961;DHT22;55902;-37.980;-63.602;2022-07-15T07:20:36;10.70;99.90
59961;DHT22;55902;-37.980;-63.602;2022-07-15T07:23:03;10.80;99.90
59961;DHT22;55902;-37.980;-63.602;2022-07-15T07:25:30;10.80;99.90
59961;DHT22;55902;-37.980;-63.602;2022-07-15T07:27:58;10.90;99.90
59961;DHT22;55902;-37.980;-63.602;2022-07-15T07:30:30;10.90;99.90
59961;DHT22;55902;-37.980;-63.602;2022-07-15T07:32:57;10.90;99.90
59961;DHT22;55902;-37.980;-63.602;2022-07-15T07:35:24;10.90;99.90
59961;DHT22;55902;-37.980;-63.602;2022-07-15T07:37:51;10.90;99.90
59961;DHT22;55902;-37.980;-63.602;2022-07-15T07:40:18;11.00;99.90
59961;DHT22;55902;-37.980;-63.602;2022-07-15T07:42:45;11.00;99.90
59961;DHT22;55902;-37.980;-63.602;2022-07-15T07:45:12;11.00;99.90
59961;DHT22;55902;-37.980;-63.602;2022-07-15T07:47:39;11.00;99.90
59961;DHT22;55902;-37.980;-63.602;2022-07-15T07:50:08;11.00;99.90
59961;DHT22;55902;-37.980;-63.602;2022-07-15T07:52:35;11.00;99.90
59961;DHT22;55902;-37.980;-63.602;2022-07-15T07:55:03;11.00;99.90
59961;DHT22;55902;-37.980;-63.602;2022-07-15T07:57:30;11.00;99.90
59961;DHT22;55902;-37.980;-63.602;2022-07-15T07:59:58;11.00;99.90
59961;DHT22;55902;-37.980;-63.602;2022-07-15T08:02:26;11.00;99.90
59961;DHT22;55902;-37.980;-63.602;2022-07-15T08:04:52;11.00;99.90
59961;DHT22;55902;-37.980;-63.602;2022-07-15T08:07:19;11.00;99.90
59961;DHT22;55902;-37.980;-63.602;2022-07-15T08:09:46;11.00;99.90
59961;DHT22;55902;-37.980;-63.602;2022-07-15T08:12:13;11.00;99.90
59961;DHT22;55902;-37.980;-63.602;2022-07-15T08:14:42;11.10;99.90
59961;DHT22;55902;-37.980;-63.602;2022-07-15T08:27:17;11.10;99.90
59961;DHT22;55902;-37.980;-63.602;2022-07-15T08:29:44;11.10;99.90
59961;DHT22;55902;-37.980;-63.602;2022-07-15T08:32:11;11.10;99.90
59961;DHT22;55902;-37.980;-63.602;2022-07-15T08:34:38;11.20;99.90
59961;DHT22;55902;-37.980;-63.602;2022-07-15T08:37:08;11.20;99.90
59961;DHT22;55902;-37.980;-63.602;2022-07-15T08:39:39;11.20;99.90
59961;DHT22;55902;-37.980;-63.602;2022-07-15T08:42:07;11.10;99.90
59961;DHT22;55902;-37.980;-63.602;2022-07-15T08:44:34;11.20;99.90
59961;DHT22;55902;-37.980;-63.602;2022-07-15T08:47:04;11.20;99.90
59961;DHT22;55902;-37.980;-63.602;2022-07-15T08:49:33;11.10;99.90
59961;DHT22;55902;-37.980;-63.602;2022-07-15T08:52:01;11.10;99.90
59961;DHT22;55902;-37.980;-63.602;2022-07-15T08:54:30;11.10;99.90
59961;DHT22;55902;-37.980;-63.602;2022-07-15T08:56:59;11.20;99.90
59961;DHT22;55902;-37.980;-63.602;2022-07-15T08:59:25;11.10;99.90
59961;DHT22;55902;-37.980;-63.602;2022-07-15T09:01:52;11.10;99.90
59961;DHT22;55902;-37.980;-63.602;2022-07-15T09:04:19;11.10;99.90
59961;DHT22;55902;-37.980;-63.602;2022-07-15T09:06:48;11.10;99.90
59961;DHT22;55902;-37.980;-63.602;2022-07-15T09:09:34;11.10;99.90
59961;DHT22;55902;-37.980;-63.602;2022-07-15T09:12:03;11.10;99.90
59961;DHT22;55902;-37.980;-63.602;2022-07-15T09:14:33;11.10;99.90
59961;DHT22;55902;-37.980;-63.602;2022-07-15T09:22:28;11.00;99.90
59961;DHT22;55902;-37.980;-63.602;2022-07-15T09:25:08;11.00;99.90
59961;DHT22;55902;-37.980;-63.602;2022-07-15T09:27:38;11.10;99.90
59961;DHT22;55902;-37.980;-63.602;2022-07-15T09:30:26;11.10;99.90
59961;DHT22;55902;-37.980;-63.602;2022-07-15T09:33:14;11.10;99.90
59961;DHT22;55902;-37.980;-63.602;2022-07-15T09:39:04;11.20;99.90
59961;DHT22;55902;-37.980;-63.602;2022-07-15T09:41:37;11.20;99.90
59961;DHT22;55902;-37.980;-63.602;2022-07-15T09:52:02;11.20;99.90
59961;DHT22;55902;-37.980;-63.602;2022-07-15T09:54:32;11.30;99.90
59961;DHT22;55902;-37.980;-63.602;2022-07-15T09:57:02;11.30;99.90
59961;DHT22;55902;-37.980;-63.602;2022-07-15T09:59:29;11.30;99.90
59961;DHT22;55902;-37.980;-63.602;2022-07-15T10:01:57;11.30;99.90
59961;DHT22;55902;-37.980;-63.602;2022-07-15T10:04:27;11.30;99.90
59961;DHT22;55902;-37.980;-63.602;2022-07-15T10:06:56;11.30;99.90
59961;DHT22;55902;-37.980;-63.602;2022-07-15T10:09:29;11.30;99.90
59961;DHT22;55902;-37.980;-63.602;2022-07-15T10:12:06;11.30;99.90
59961;DHT22;55902;-37.980;-63.602;2022-07-15T10:17:47;11.20;99.90
59961;DHT22;55902;-37.980;-63.602;2022-07-15T10:20:40;11.30;99.90
59961;DHT22;55902;-37.980;-63.602;2022-07-15T10:26:25;11.30;99.90
59961;DHT22;55902;-37.980;-63.602;2022-07-15T10:29:04;11.30;99.90
59961;DHT22;55902;-37.980;-63.602;2022-07-15T10:31:33;11.30;99.90
59961;DHT22;55902;-37.980;-63.602;2022-07-15T10:39:08;11.30;99.90
59961;DHT22;55902;-37.980;-63.602;2022-07-15T10:41:58;11.40;99.90
59961;DHT22;55902;-37.980;-63.602;2022-07-15T10:44:27;11.40;99.90
59961;DHT22;55902;-37.980;-63.602;2022-07-15T10:49:46;11.40;99.90
59961;DHT22;55902;-37.980;-63.602;2022-07-15T10:54:43;11.30;99.90
59961;DHT22;55902;-37.980;-63.602;2022-07-15T10:57:12;11.20;99.90
59961;DHT22;55902;-37.980;-63.602;2022-07-15T10:59:55;11.20;99.90
59961;DHT22;55902;-37.980;-63.602;2022-07-15T11:02:24;11.20;99.90
59961;DHT22;55902;-37.980;-63.602;2022-07-15T11:04:54;11.20;99.90
59961;DHT22;55902;-37.980;-63.602;2022-07-15T11:07:39;11.10;99.90
59961;DHT22;55902;-37.980;-63.602;2022-07-15T11:10:13;11.00;99.90
59961;DHT22;55902;-37.980;-63.602;2022-07-15T11:15:22;10.90;99.90
59961;DHT22;55902;-37.980;-63.602;2022-07-15T11:17:54;10.70;99.90
59961;DHT22;55902;-37.980;-63.602;2022-07-15T11:20:24;10.60;99.90
59961;DHT22;55902;-37.980;-63.602;2022-07-15T11:22:55;10.50;99.90
59961;DHT22;55902;-37.980;-63.602;2022-07-15T11:25:26;10.30;99.90
59961;DHT22;55902;-37.980;-63.602;2022-07-15T11:28:11;10.30;99.90
59961;DHT22;55902;-37.980;-63.602;2022-07-15T11:30:42;10.20;99.90
59961;DHT22;55902;-37.980;-63.602;2022-07-15T11:33:12;10.10;99.90
59961;DHT22;55902;-37.980;-63.602;2022-07-15T11:35:49;10.00;99.90
59961;DHT22;55902;-37.980;-63.602;2022-07-15T11:38:18;10.00;99.90
59961;DHT22;55902;-37.980;-63.602;2022-07-15T11:40:51;10.00;99.90
59961;DHT22;55902;-37.980;-63.602;2022-07-15T11:43:37;10.00;99.90
59961;DHT22;55902;-37.980;-63.602;2022-07-15T11:46:22;10.00;99.90
59961;DHT22;55902;-37.980;-63.602;2022-07-15T11:48:52;10.00;99.90
59961;DHT22;55902;-37.980;-63.602;2022-07-15T11:51:28;10.00;99.90
59961;DHT22;55902;-37.980;-63.602;2022-07-15T11:53:57;10.00;99.90
59961;DHT22;55902;-37.980;-63.602;2022-07-15T11:56:24;10.00;99.90
59961;DHT22;55902;-37.980;-63.602;2022-07-15T11:58:55;10.10;99.90
59961;DHT22;55902;-37.980;-63.602;2022-07-15T12:01:26;10.10;99.90
59961;DHT22;55902;-37.980;-63.602;2022-07-15T12:03:58;10.20;99.90
59961;DHT22;55902;-37.980;-63.602;2022-07-15T12:06:28;10.30;99.90
59961;DHT22;55902;-37.980;-63.602;2022-07-15T12:09:01;10.30;99.90
59961;DHT22;55902;-37.980;-63.602;2022-07-15T12:11:34;10.40;99.90
59961;DHT22;55902;-37.980;-63.602;2022-07-15T12:14:07;10.40;99.90
59961;DHT22;55902;-37.980;-63.602;2022-07-15T12:19:09;10.70;99.90
59961;DHT22;55902;-37.980;-63.602;2022-07-15T12:21:39;10.80;99.90
59961;DHT22;55902;-37.980;-63.602;2022-07-15T12:24:15;10.90;99.90
59961;DHT22;55902;-37.980;-63.602;2022-07-15T12:27:02;11.00;99.90
59961;DHT22;55902;-37.980;-63.602;2022-07-15T12:29:31;11.00;99.90
59961;DHT22;55902;-37.980;-63.602;2022-07-15T12:32:03;11.10;99.90
59961;DHT22;55902;-37.980;-63.602;2022-07-15T12:34:51;11.20;99.90
59961;DHT22;55902;-37.980;-63.602;2022-07-15T12:37:21;11.30;99.90
59961;DHT22;55902;-37.980;-63.602;2022-07-15T12:40:05;11.40;99.90
59961;DHT22;55902;-37.980;-63.602;2022-07-15T12:42:41;11.50;99.90
59961;DHT22;55902;-37.980;-63.602;2022-07-15T12:57:48;11.90;99.90
59961;DHT22;55902;-37.980;-63.602;2022-07-15T13:00:21;11.90;99.90
59961;DHT22;55902;-37.980;-63.602;2022-07-15T13:03:08;12.00;99.90
59961;DHT22;55902;-37.980;-63.602;2022-07-15T13:05:54;11.90;99.90
59961;DHT22;55902;-37.980;-63.602;2022-07-15T13:08:34;11.80;99.90
59961;DHT22;55902;-37.980;-63.602;2022-07-15T13:11:03;11.70;99.90
59961;DHT22;55902;-37.980;-63.602;2022-07-15T13:13:33;11.60;99.90
59961;DHT22;55902;-37.980;-63.602;2022-07-15T13:16:01;11.60;99.90
59961;DHT22;55902;-37.980;-63.602;2022-07-15T13:18:29;11.50;99.90
59961;DHT22;55902;-37.980;-63.602;2022-07-15T13:20:58;11.50;99.90
59961;DHT22;55902;-37.980;-63.602;2022-07-15T13:23:25;11.50;99.90
59961;DHT22;55902;-37.980;-63.602;2022-07-15T13:25:53;11.60;99.90
59961;DHT22;55902;-37.980;-63.602;2022-07-15T13:28:27;11.70;99.90
59961;DHT22;55902;-37.980;-63.602;2022-07-15T13:30:55;11.80;99.90
59961;DHT22;55902;-37.980;-63.602;2022-07-15T13:33:22;11.80;99.90
59961;DHT22;55902;-37.980;-63.602;2022-07-15T13:35:49;11.70;99.90
59961;DHT22;55902;-37.980;-63.602;2022-07-15T13:38:16;11.60;99.90
59961;DHT22;55902;-37.980;-63.602;2022-07-15T13:40:43;11.50;99.90
59961;DHT22;55902;-37.980;-63.602;2022-07-15T13:43:10;11.40;99.90
59961;DHT22;55902;-37.980;-63.602;2022-07-15T13:45:39;11.30;99.90
59961;DHT22;55902;-37.980;-63.602;2022-07-15T13:48:06;11.20;99.90
59961;DHT22;55902;-37.980;-63.602;2022-07-15T13:50:33;11.10;99.90
59961;DHT22;55902;-37.980;-63.602;2022-07-15T13:53:17;11.10;99.90
59961;DHT22;55902;-37.980;-63.602;2022-07-15T13:55:44;11.00;99.90
59961;DHT22;55902;-37.980;-63.602;2022-07-15T13:58:11;11.00;99.90
59961;DHT22;55902;-37.980;-63.602;2022-07-15T14:00:42;10.90;99.90
59961;DHT22;55902;-37.980;-63.602;2022-07-15T14:03:09;10.70;99.90
59961;DHT22;55902;-37.980;-63.602;2022-07-15T14:05:36;10.70;99.90
59961;DHT22;55902;-37.980;-63.602;2022-07-15T14:08:03;10.60;99.90
59961;DHT22;55902;-37.980;-63.602;2022-07-15T14:10:31;10.60;99.90
59961;DHT22;55902;-37.980;-63.602;2022-07-15T14:12:58;10.60;99.90
59961;DHT22;55902;-37.980;-63.602;2022-07-15T14:15:25;10.70;99.90
59961;DHT22;55902;-37.980;-63.602;2022-07-15T14:17:52;10.60;99.90
59961;DHT22;55902;-37.980;-63.602;2022-07-15T14:20:19;10.60;99.90
59961;DHT22;55902;-37.980;-63.602;2022-07-15T14:22:46;10.50;99.90
59961;DHT22;55902;-37.980;-63.602;2022-07-15T14:25:16;10.70;99.90
59961;DHT22;55902;-37.980;-63.602;2022-07-15T14:28:03;10.60;99.90
59961;DHT22;55902;-37.980;-63.602;2022-07-15T14:30:30;10.70;99.90
59961;DHT22;55902;-37.980;-63.602;2022-07-15T14:33:03;10.80;99.90
59961;DHT22;55902;-37.980;-63.602;2022-07-15T14:35:30;10.80;99.90
59961;DHT22;55902;-37.980;-63.602;2022-07-15T14:37:58;10.90;99.90
59961;DHT22;55902;-37.980;-63.602;2022-07-15T14:40:25;11.00;99.90
59961;DHT22;55902;-37.980;-63.602;2022-07-15T14:42:52;11.00;99.90
59961;DHT22;55902;-37.980;-63.602;2022-07-15T14:45:22;11.10;99.90
59961;DHT22;55902;-37.980;-63.602;2022-07-15T14:47:49;11.10;99.90
59961;DHT22;55902;-37.980;-63.602;2022-07-15T14:50:16;11.10;99.90
59961;DHT22;55902;-37.980;-63.602;2022-07-15T14:52:45;11.20;99.90
59961;DHT22;55902;-37.980;-63.602;2022-07-15T14:55:12;11.10;99.90
59961;DHT22;55902;-37.980;-63.602;2022-07-15T14:57:38;11.20;99.90
59961;DHT22;55902;-37.980;-63.602;2022-07-15T15:00:06;11.20;99.90
59961;DHT22;55902;-37.980;-63.602;2022-07-15T15:02:33;11.10;99.90
59961;DHT22;55902;-37.980;-63.602;2022-07-15T15:05:00;11.20;99.90
59961;DHT22;55902;-37.980;-63.602;2022-07-15T15:07:27;11.30;99.90
59961;DHT22;55902;-37.980;-63.602;2022-07-15T15:09:54;11.70;99.90
59961;DHT22;55902;-37.980;-63.602;2022-07-15T15:12:20;12.10;99.90
59961;DHT22;55902;-37.980;-63.602;2022-07-15T15:14:47;12.70;99.90
59961;DHT22;55902;-37.980;-63.602;2022-07-15T15:17:15;13.10;99.90
59961;DHT22;55902;-37.980;-63.602;2022-07-15T15:19:42;13.50;99.90
59961;DHT22;55902;-37.980;-63.602;2022-07-15T15:22:09;13.60;99.90
59961;DHT22;55902;-37.980;-63.602;2022-07-15T15:24:36;13.80;99.90
59961;DHT22;55902;-37.980;-63.602;2022-07-15T15:27:04;13.80;99.90
59961;DHT22;55902;-37.980;-63.602;2022-07-15T15:29:33;13.90;99.90
59961;DHT22;55902;-37.980;-63.602;2022-07-15T15:32:00;13.90;99.90
59961;DHT22;55902;-37.980;-63.602;2022-07-15T15:34:26;13.90;99.90
59961;DHT22;55902;-37.980;-63.602;2022-07-15T15:36:56;13.90;99.90
59961;DHT22;55902;-37.980;-63.602;2022-07-15T15:39:24;14.00;99.90
59961;DHT22;55902;-37.980;-63.602;2022-07-15T15:41:51;14.00;99.90
59961;DHT22;55902;-37.980;-63.602;2022-07-15T15:44:18;13.80;99.90
59961;DHT22;55902;-37.980;-63.602;2022-07-15T15:46:45;13.70;99.90
59961;DHT22;55902;-37.980;-63.602;2022-07-15T15:49:12;13.70;99.90
59961;DHT22;55902;-37.980;-63.602;2022-07-15T15:51:39;13.50;99.90
59961;DHT22;55902;-37.980;-63.602;2022-07-15T15:54:06;13.40;99.90
59961;DHT22;55902;-37.980;-63.602;2022-07-15T15:56:33;13.20;99.90
59961;DHT22;55902;-37.980;-63.602;2022-07-15T15:59:00;13.10;99.90
59961;DHT22;55902;-37.980;-63.602;2022-07-15T16:01:27;13.10;99.90
59961;DHT22;55902;-37.980;-63.602;2022-07-15T16:03:54;13.00;99.90
59961;DHT22;55902;-37.980;-63.602;2022-07-15T16:06:21;13.10;99.90
59961;DHT22;55902;-37.980;-63.602;2022-07-15T16:08:48;13.00;99.90
59961;DHT22;55902;-37.980;-63.602;2022-07-15T16:11:17;13.10;99.90
59961;DHT22;55902;-37.980;-63.602;2022-07-15T16:13:45;13.00;99.90
59961;DHT22;55902;-37.980;-63.602;2022-07-15T16:16:12;12.90;99.90
59961;DHT22;55902;-37.980;-63.602;2022-07-15T16:18:39;12.80;99.90
59961;DHT22;55902;-37.980;-63.602;2022-07-15T16:21:07;12.80;99.90
59961;DHT22;55902;-37.980;-63.602;2022-07-15T16:23:34;12.80;99.90
59961;DHT22;55902;-37.980;-63.602;2022-07-15T16:26:01;12.80;99.90
59961;DHT22;55902;-37.980;-63.602;2022-07-15T16:28:28;12.80;99.90
59961;DHT22;55902;-37.980;-63.602;2022-07-15T16:30:54;12.90;99.90
59961;DHT22;55902;-37.980;-63.602;2022-07-15T16:33:21;12.90;99.90
59961;DHT22;55902;-37.980;-63.602;2022-07-15T16:35:48;13.00;99.90
59961;DHT22;55902;-37.980;-63.602;2022-07-15T16:38:15;13.10;99.90
59961;DHT22;55902;-37.980;-63.602;2022-07-15T16:40:42;13.10;99.90